Latest Weather Observations for Redesdale

IDV60801

Issued at 6:31 am EST Friday 29 May 2015 (issued every 30 minutes, with the page automatically refreshed every 10 minutes)

About weather observations | Map of weather stations | Latest weather observations for VIC | Other Formats
Station Details ID: 088051 Name: REDESDALE Lat: -37.02 Lon: 144.52 Height: 290.0 m
Data from the previous 72 hours. | See also: Recent months at Redesdale
Date/Time
EST
Temp
°C
App
Temp
°C
Dew
Point
Rel
Hum
%
Delta-T
°C
Wind Press
QNH
hPa
Press
MSL
hPa
Rain
since 9 am
mm
Dir
 
Spd
km/h
Gust
km/h
Spd
kts
Gust
kts
29/06:30am 3.9 1.2 3.5 97 0.2 S 7 9 4 5 - - 0.2
29/06:00am 4.9 2.9 4.5 97 0.2 SSE 4 6 2 3 - - 0.2
29/05:30am 3.6 1.3 3.0 96 0.2 SW 4 6 2 3 - - 0.2
29/05:00am 4.6 3.2 3.7 94 0.4 CALM 0 2 0 1 - - 0.2
29/04:30am 6.4 5.3 5.0 91 0.6 CALM 0 0 0 0 - - 0.2
29/04:00am 7.5 6.6 6.1 91 0.6 CALM 0 0 0 0 - - 0.2
29/03:30am 8.2 7.4 6.7 90 0.7 CALM 0 0 0 0 - - 0.2
29/03:00am 8.2 6.2 6.3 88 0.9 SW 6 9 3 5 - - 0.2
29/02:30am 8.7 8.1 7.3 91 0.7 CALM 0 0 0 0 - - 0.2
29/02:00am 8.9 8.2 7.0 88 0.9 CALM 0 0 0 0 - - 0.2
29/01:30am 10.0 9.4 7.6 85 1.2 CALM 0 2 0 1 - - 0.2
29/01:00am 10.4 9.9 7.8 84 1.3 CALM 0 0 0 0 - - 0.2
29/12:30am 10.5 9.6 7.7 83 1.4 W 2 6 1 3 - - 0.2
29/12:00am 11.2 9.9 7.7 79 1.7 NW 4 6 2 3 - - 0.2
 
Date/Time
EST
Temp
°C
App
Temp
°C
Dew
Point
Rel
Hum
%
Delta-T
°C
Wind Press
QNH
hPa
Press
MSL
hPa
Rain
since 9 am
mm
Dir
 
Spd
km/h
Gust
km/h
Spd
kts
Gust
kts
28/11:30pm 10.5 9.0 7.0 79 1.7 NW 4 9 2 5 - - 0.2
28/11:00pm 10.8 9.3 6.6 75 2.0 NE 4 6 2 3 - - 0.2
28/10:30pm 11.4 9.8 6.5 72 2.4 NNW 4 6 2 3 - - 0.2
28/10:00pm 12.1 10.0 5.9 66 3.0 NNW 6 11 3 6 - - 0.2
28/09:30pm 13.4 10.8 6.3 62 3.4 WNW 9 19 5 10 - - 0.2
28/09:00pm 14.4 11.0 6.0 57 4.1 WNW 13 33 7 18 - - 0.2
28/08:30pm 14.2 11.5 5.8 57 4.1 WNW 9 19 5 10 - - 0.2
28/08:00pm 13.1 11.2 6.5 64 3.2 NNW 6 13 3 7 - - 0.0
28/07:30pm 13.2 11.1 6.8 65 3.1 NNW 7 11 4 6 - - 0.0
28/07:00pm 13.4 11.5 6.7 64 3.3 NW 6 7 3 4 - - 0.0
28/06:30pm 13.9 11.5 7.0 63 3.4 N 9 11 5 6 - - 0.0
28/06:00pm 14.1 12.2 7.6 65 3.3 N 7 9 4 5 - - 0.0
28/05:30pm 14.1 12.2 7.6 65 3.3 N 7 9 4 5 - - 0.0
28/05:00pm 15.7 12.7 7.7 59 4.1 NNW 13 19 7 10 - - 0.0
28/04:30pm 16.7 13.5 8.4 58 4.3 NNW 15 24 8 13 - - 0.0
28/04:00pm 16.7 13.8 8.1 57 4.4 NNW 13 22 7 12 - - 0.0
28/03:30pm 16.9 12.8 7.8 55 4.7 NNW 19 28 10 15 - - 0.0
28/03:00pm 16.8 12.2 8.0 56 4.5 NNW 22 35 12 19 - - 0.0
28/02:30pm 16.5 12.6 8.5 59 4.1 N 19 32 10 17 - - 0.0
28/02:00pm 16.9 13.5 9.1 60 4.1 N 17 24 9 13 - - 0.0
28/01:30pm 15.9 13.4 9.6 66 3.3 NNW 13 17 7 9 - - 0.0
28/01:00pm 15.5 12.9 9.4 67 3.2 N 13 20 7 11 - - 0.0
28/12:30pm 15.5 12.9 9.2 66 3.3 N 13 19 7 10 - - 0.0
28/12:00pm 15.6 14.1 10.4 71 2.8 NNE 9 19 5 10 - - 0.0
28/11:30am 14.1 12.5 10.1 77 2.1 NNE 9 15 5 8 - - 0.0
28/11:00am 12.8 11.1 9.8 82 1.6 NNE 9 13 5 7 - - 0.0
28/10:30am 11.1 9.2 10.6 97 0.3 N 11 17 6 9 - - 0.0
28/10:00am 10.6 9.4 10.4 99 0.1 N 7 13 4 7 - - 0.0
28/09:30am 9.9 8.6 9.8 99 0.1 NE 7 11 4 6 - - 0.0
28/09:00am 9.7 8.3 9.6 99 0.1 NE 7 9 4 5 - - 0.0
28/08:30am 9.5 8.3 9.4 99 0.1 NE 6 9 3 5 - - 0.0
28/08:00am 9.4 7.9 9.3 99 0.1 NE 7 11 4 6 - - 0.0
28/07:30am 9.4 8.1 9.3 99 0.1 NNE 6 9 3 5 - - 0.0
28/07:00am 9.4 8.1 9.3 99 0.1 ENE 6 7 3 4 - - 0.0
28/06:30am 9.4 8.5 9.3 99 0.1 ENE 4 6 2 3 - - 0.0
28/06:00am 9.3 8.0 9.2 99 0.1 NE 6 9 3 5 - - 0.0
28/05:30am 9.4 8.5 9.3 99 0.1 ENE 4 6 2 3 - - 0.0
28/05:00am 9.3 8.4 9.2 99 0.1 E 4 6 2 3 - - 0.0
28/04:30am 9.3 8.0 9.2 99 0.1 E 6 9 3 5 - - 0.0
28/04:00am 9.2 7.9 9.1 99 0.0 ESE 6 7 3 4 - - 0.0
28/03:30am 8.9 7.3 8.8 99 0.0 ESE 7 9 4 5 - - 0.0
28/03:00am 7.8 5.6 7.7 99 0.0 E 9 11 5 6 - - 0.0
28/02:30am 6.4 3.8 6.1 98 0.1 ESE 9 11 5 6 - - 0.0
28/02:00am 5.7 3.5 5.4 98 0.1 SE 6 7 3 4 - - 0.0
28/01:30am 5.7 3.5 5.3 97 0.2 SE 6 7 3 4 - - 0.0
28/01:00am 6.8 5.2 6.4 97 0.2 SE 4 6 2 3 - - 0.0
28/12:30am 7.1 5.2 6.7 97 0.2 SE 6 7 3 4 - - 0.0
28/12:00am 7.3 5.2 6.7 96 0.3 SSE 7 9 4 5 - - 0.0
 
Date/Time
EST
Temp
°C
App
Temp
°C
Dew
Point
Rel
Hum
%
Delta-T
°C
Wind Press
QNH
hPa
Press
MSL
hPa
Rain
since 9 am
mm
Dir
 
Spd
km/h
Gust
km/h
Spd
kts
Gust
kts
27/11:30pm 8.2 6.8 7.3 94 0.4 E 4 7 2 4 - - 0.0
27/11:00pm 9.0 7.4 7.9 93 0.5 E 6 7 3 4 - - 0.0
27/10:30pm 9.4 7.8 8.2 92 0.6 SSW 6 7 3 4 - - 0.0
27/10:00pm 10.3 9.7 8.9 91 0.7 ENE 2 6 1 3 - - 0.0
27/09:30pm 11.7 10.8 9.3 85 1.2 ENE 4 4 2 2 - - 0.0
27/09:00pm 11.9 11.0 9.3 84 1.3 NE 4 6 2 3 - - 0.0
27/08:30pm 11.8 10.8 8.8 82 1.5 NE 4 7 2 4 - - 0.0
27/08:00pm 12.4 11.2 9.4 82 1.5 NE 6 6 3 3 - - 0.0
27/07:30pm 12.4 11.1 9.1 80 1.7 NE 6 9 3 5 - - 0.0
27/07:00pm 12.9 11.4 9.2 78 1.9 NE 7 13 4 7 - - 0.0
27/06:30pm 13.2 11.7 9.1 76 2.1 N 7 13 4 7 - - 0.0
27/06:00pm 13.7 12.2 9.2 74 2.3 ENE 7 9 4 5 - - 0.0
27/05:30pm 14.1 12.6 9.1 72 2.6 NE 7 11 4 6 - - 0.0
27/05:00pm 14.3 12.4 9.1 71 2.7 NE 9 13 5 7 - - 0.0
27/04:30pm 14.9 12.6 9.1 68 3.0 NNE 11 15 6 8 - - 0.0
27/04:00pm 15.8 13.6 9.2 65 3.5 NNE 11 17 6 9 - - 0.0
27/03:30pm 15.5 13.2 9.0 65 3.4 NNE 11 20 6 11 - - 0.0
27/03:00pm 15.3 12.6 9.0 66 3.3 N 13 17 7 9 - - 0.0
27/02:30pm 15.3 12.7 9.2 67 3.2 N 13 20 7 11 - - 0.0
27/02:00pm 14.6 12.3 9.0 69 2.9 N 11 19 6 10 - - 0.0
27/01:30pm 13.9 11.5 8.7 71 2.7 N 11 19 6 10 - - 0.0
27/01:00pm 13.6 11.2 8.7 72 2.5 NNE 11 19 6 10 - - 0.0
27/12:30pm 13.3 10.9 8.8 74 2.3 NNE 11 19 6 10 - - 0.0
27/12:00pm 13.2 11.3 9.1 76 2.1 NNE 9 17 5 9 - - 0.0
27/11:30am 11.6 9.9 8.5 81 1.6 NNE 7 13 4 7 - - 0.0
27/11:00am 12.2 10.2 8.7 79 1.8 NNE 9 15 5 8 - - 0.0
27/10:30am 11.3 8.7 7.8 79 1.7 NE 11 17 6 9 - - 0.0
27/10:00am 11.2 9.6 8.1 81 1.5 NNE 6 13 3 7 - - 0.0
27/09:30am 10.4 9.0 7.1 80 1.6 NE 4 6 2 3 - - 0.0
27/09:00am 9.9 8.5 7.2 83 1.3 ENE 4 6 2 3 - - -
27/08:30am 9.4 7.9 7.0 85 1.1 ENE 4 7 2 4 - - -
27/08:00am 9.3 7.8 6.7 84 1.2 NE 4 6 2 3 - - -
27/07:30am 9.2 7.7 6.6 84 1.2 NE 4 6 2 3 - - -
27/07:00am 9.2 7.3 6.6 84 1.2 ENE 6 7 3 4 - - -
27/06:30am 9.2 7.3 6.6 84 1.2 ENE 6 9 3 5 - - -
27/06:00am 9.2 7.7 6.8 85 1.1 E 4 9 2 5 - - -
27/05:30am 8.6 6.5 6.6 87 0.9 ESE 7 11 4 6 - - -
27/05:00am 9.0 6.6 6.8 86 1.0 ESE 9 13 5 7 - - -
27/04:30am 8.6 6.7 6.7 88 0.9 ESE 6 9 3 5 - - -
27/04:00am 8.3 6.8 6.6 89 0.8 ESE 4 6 2 3 - - -
27/03:30am 8.3 6.7 6.4 88 0.9 E 4 6 2 3 - - -
27/03:00am 8.2 6.6 6.3 88 0.9 ESE 4 6 2 3 - - 0.0
27/02:30am 8.2 6.1 6.5 89 0.8 ESE 7 9 4 5 - - -
27/02:00am 8.2 6.6 6.5 89 0.8 E 4 6 2 3 - - -
27/01:30am 7.4 5.7 5.9 90 0.7 ESE 4 6 2 3 - - -
27/01:00am 7.9 5.8 6.0 88 0.9 ESE 6 6 3 3 - - -
27/12:30am 7.9 6.6 6.2 89 0.8 ESE 2 6 1 3 - - -
27/12:00am 7.8 5.8 6.4 91 0.7 ESE 6 11 3 6 - - -
 
Date/Time
EST
Temp
°C
App
Temp
°C
Dew
Point
Rel
Hum
%
Delta-T
°C
Wind Press
QNH
hPa
Press
MSL
hPa
Rain
since 9 am
mm
Dir
 
Spd
km/h
Gust
km/h
Spd
kts
Gust
kts
26/11:30pm 6.9 5.1 5.5 91 0.6 SSE 4 4 2 2 - - -
26/11:00pm 6.6 4.8 5.6 93 0.5 S 4 6 2 3 - - -
26/10:30pm 5.9 3.6 5.0 94 0.4 SSW 6 6 3 3 - - -
26/10:00pm 5.5 3.2 4.6 94 0.4 SSW 6 7 3 4 - - -
26/09:30pm 5.1 2.5 4.1 93 0.4 S 7 7 4 4 - - -
26/09:00pm 4.6 2.1 3.6 93 0.4 S 6 6 3 3 - - -
26/08:30pm 4.7 2.5 3.5 92 0.5 SE 4 6 2 3 - - -
26/08:00pm 5.6 3.2 4.1 90 0.6 SE 6 6 3 3 - - -
26/07:30pm 5.9 4.3 4.4 90 0.7 SE 2 4 1 2 - - -
26/07:00pm 6.8 4.3 5.0 88 0.8 ESE 7 9 4 5 - - -
26/06:30pm 7.5 5.6 5.0 84 1.1 ENE 4 6 2 3 - - -
26/06:00pm 8.1 6.7 5.4 83 1.2 ENE 2 4 1 2 - - -
26/05:30pm 9.1 7.2 5.1 76 1.8 ENE 4 4 2 2 - - -
26/05:00pm 11.6 10.4 6.3 70 2.5 NE 2 4 1 2 - - -
26/04:30pm 12.5 10.5 6.1 65 3.1 NNE 6 9 3 5 - - -
26/03:30pm 13.7 11.6 6.8 63 3.4 N 7 11 4 6 - - 0.0
26/03:00pm 12.4 10.8 6.2 66 3.0 ENE 4 7 2 4 - - 0.0
26/02:30pm 12.4 10.3 6.5 67 2.9 N 7 9 4 5 - - 0.0
26/02:00pm 13.1 11.2 6.5 64 3.2 NNE 6 11 3 6 - - 0.0
26/01:30pm 13.8 11.8 6.4 61 3.6 N 6 9 3 5 - - 0.0
26/01:00pm 13.1 11.1 6.2 63 3.3 NNE 6 9 3 5 - - 0.0
26/12:30pm 12.9 10.4 6.5 65 3.1 N 9 11 5 6 - - 0.0
26/12:00pm 12.4 10.2 6.0 65 3.1 NNE 7 9 4 5 - - 0.0
26/11:30am 11.5 9.5 6.4 71 2.4 N 6 11 3 6 - - 0.0
26/11:00am 11.6 10.1 6.9 73 2.3 NNE 4 9 2 5 - - 0.0
26/10:30am 10.6 9.4 6.6 76 1.9 E 2 4 1 2 - - 0.0
26/10:00am 9.8 8.2 6.3 79 1.7 SE 4 4 2 2 - - 0.0
26/09:30am 8.7 6.9 7.0 89 0.8 S 6 6 3 3 - - 0.0
26/09:00am 6.7 4.5 5.5 92 0.5 SSW 6 9 3 5 - - 0.2
26/08:30am 4.7 2.0 3.8 94 0.4 SW 7 9 4 5 - - 0.2
26/08:00am 3.3 -0.4 2.4 94 0.4 SSW 11 13 6 7 - - 0.2
26/07:30am 2.1 -1.8 1.4 95 0.3 SSW 11 15 6 8 - - 0.2
26/07:00am 1.2 -2.8 0.6 96 0.2 SSW 11 13 6 7 - - 0.2

Other Formats:

Comma delimited format used in spreadsheet applications
http://www.bom.gov.au/fwo/IDV60801/IDV60801.94859.axf

JavaScript Object Notation format (JSON) in row-major order
http://www.bom.gov.au/fwo/IDV60801/IDV60801.94859.json